createdAt,value
2022-08-01T00:02:15.651Z,71.72
2022-08-01T00:04:48.049Z,72.48
2022-08-01T00:07:16.913Z,72.17
2022-08-01T00:09:52.450Z,72.05
2022-08-01T00:12:33.909Z,72.97
2022-08-01T00:15:07.910Z,70.46
2022-08-01T00:17:39.736Z,71.03
2022-08-01T00:20:12.811Z,73.03
2022-08-01T00:22:42.031Z,73.31
2022-08-01T00:25:12.777Z,73.60
2022-08-01T00:27:43.732Z,73.05
2022-08-01T00:30:14.961Z,73.08
2022-08-01T00:32:48.141Z,73.16
2022-08-01T00:35:19.715Z,73.89
2022-08-01T00:37:52.761Z,74.39
2022-08-01T00:40:21.853Z,73.06
2022-08-01T00:42:56.149Z,73.71
2022-08-01T00:45:29.818Z,74.15
2022-08-01T00:48:00.871Z,74.20
2022-08-01T00:50:30.007Z,75.35
2022-08-01T00:53:01.932Z,74.73
2022-08-01T00:55:36.709Z,74.45
2022-08-01T00:58:16.684Z,73.90
2022-08-01T01:00:52.632Z,75.21
2022-08-01T01:03:58.024Z,74.87
2022-08-01T01:06:35.232Z,75.03
2022-08-01T01:09:24.367Z,76.25
2022-08-01T01:12:15.098Z,76.03
2022-08-01T01:14:59.380Z,76.37
2022-08-01T01:17:50.453Z,76.76
2022-08-01T01:20:24.261Z,75.71
2022-08-01T01:23:27.114Z,76.39
2022-08-01T01:26:26.063Z,76.98
2022-08-01T01:29:06.629Z,74.28
2022-08-01T01:31:45.789Z,76.68
2022-08-01T01:34:19.033Z,76.06
2022-08-01T01:36:50.564Z,74.49
2022-08-01T01:39:20.847Z,75.23
2022-08-01T01:41:51.958Z,77.96
2022-08-01T01:44:22.540Z,75.58
2022-08-01T01:46:54.335Z,76.14
2022-08-01T01:49:26.572Z,77.84
2022-08-01T01:52:02.446Z,76.59
2022-08-01T01:54:35.773Z,78.33
2022-08-01T01:57:07.537Z,77.76
2022-08-01T01:59:42.396Z,76.52
2022-08-01T02:02:13.092Z,76.21
2022-08-01T02:04:45.889Z,78.37
2022-08-01T02:07:20.294Z,77.49
2022-08-01T02:09:53.759Z,78.13
2022-08-01T02:12:25.373Z,77.88
2022-08-01T02:14:57.816Z,78.50
2022-08-01T02:17:30.684Z,77.42
2022-08-01T02:20:00.721Z,79.42
2022-08-01T02:22:34.766Z,78.37
2022-08-01T02:25:13.113Z,78.36
2022-08-01T02:27:49.849Z,79.40
2022-08-01T02:30:22.794Z,79.37
2022-08-01T02:33:15.746Z,78.89
2022-08-01T02:36:30.666Z,78.73
2022-08-01T02:38:44.625Z,78.77
2022-08-01T02:41:20.990Z,78.38
2022-08-01T02:43:54.743Z,78.91
2022-08-01T02:46:37.270Z,78.76
2022-08-01T02:49:10.477Z,78.73
2022-08-01T02:51:41.925Z,78.11
2022-08-01T02:54:15.306Z,78.79
2022-08-01T02:56:45.833Z,78.87
2022-08-01T02:59:22.263Z,79.11
2022-08-01T03:01:57.686Z,75.23
2022-08-01T03:04:30.370Z,78.25
2022-08-01T03:07:00.492Z,79.16
2022-08-01T03:09:33.441Z,78.31
2022-08-01T03:12:09.186Z,78.63
2022-08-01T03:14:43.408Z,79.59
2022-08-01T03:17:14.312Z,79.03
2022-08-01T03:19:47.450Z,78.34
2022-08-01T03:22:21.452Z,79.19
2022-08-01T03:24:55.060Z,76.36
2022-08-01T03:27:27.921Z,74.59
2022-08-01T03:30:02.061Z,79.61
2022-08-01T03:32:39.513Z,78.88
2022-08-01T03:35:10.598Z,78.90
2022-08-01T03:38:13.562Z,79.84
2022-08-01T03:40:43.558Z,78.61
2022-08-01T03:43:22.646Z,77.99
2022-08-01T03:45:54.324Z,78.46
2022-08-01T03:48:32.090Z,76.75
2022-08-01T03:51:01.854Z,77.38
2022-08-01T03:53:34.664Z,79.16
2022-08-01T03:56:05.573Z,75.79
2022-08-01T03:58:38.527Z,78.00
2022-08-01T04:01:15.957Z,79.10
2022-08-01T04:03:47.765Z,78.64
2022-08-01T04:06:18.325Z,78.47
2022-08-01T04:08:56.793Z,79.54
2022-08-01T04:11:31.902Z,79.97
2022-08-01T04:14:01.115Z,78.66
2022-08-01T04:16:32.443Z,77.02
2022-08-01T04:19:03.398Z,80.02
2022-08-01T04:21:34.987Z,78.17
2022-08-01T04:24:13.388Z,80.44
2022-08-01T04:26:45.686Z,79.42
2022-08-01T04:29:18.307Z,79.11
2022-08-01T04:31:51.722Z,77.15
2022-08-01T04:34:27.080Z,77.63
2022-08-01T04:36:58.740Z,78.91
2022-08-01T04:39:31.970Z,78.48
2022-08-01T04:42:05.106Z,81.30
2022-08-01T04:44:35.301Z,80.70
2022-08-01T04:47:08.885Z,79.57
2022-08-01T04:49:49.264Z,78.99
2022-08-01T04:52:24.383Z,80.91
2022-08-01T04:54:55.547Z,81.02
2022-08-01T04:57:24.751Z,80.26
2022-08-01T04:59:57.888Z,80.52
2022-08-01T05:02:29.456Z,77.77
2022-08-01T05:05:00.138Z,81.79
2022-08-01T05:07:29.188Z,81.58
2022-08-01T05:10:02.545Z,80.22
2022-08-01T05:12:37.845Z,79.25
2022-08-01T05:15:15.256Z,76.21
2022-08-01T05:17:45.024Z,76.25
2022-08-01T05:20:18.479Z,75.76
2022-08-01T05:22:49.362Z,77.45
2022-08-01T05:25:56.972Z,76.44
2022-08-01T05:28:27.547Z,75.44
2022-08-01T05:30:59.027Z,72.10
2022-08-01T05:33:38.654Z,70.54
2022-08-01T05:36:12.230Z,68.22
2022-08-01T05:38:41.408Z,69.96
2022-08-01T05:41:12.615Z,72.39
2022-08-01T05:43:41.689Z,75.96
2022-08-01T05:46:11.214Z,71.51
2022-08-01T05:48:43.369Z,75.96
2022-08-01T05:51:14.454Z,77.38
2022-08-01T05:53:43.714Z,77.38
2022-08-01T05:56:15.519Z,78.15
2022-08-01T05:58:44.540Z,80.12
2022-08-01T06:01:13.861Z,79.20
2022-08-01T06:03:43.217Z,80.08
2022-08-01T06:06:15.376Z,80.09
2022-08-01T06:08:44.596Z,79.18
2022-08-01T06:11:13.742Z,80.27
2022-08-01T06:13:45.580Z,79.49
2022-08-01T06:16:18.397Z,76.45
2022-08-01T06:18:47.527Z,70.20
2022-08-01T06:21:20.739Z,73.65
2022-08-01T06:23:50.215Z,73.13
2022-08-01T06:26:22.803Z,76.92
2022-08-01T06:28:51.735Z,73.24
2022-08-01T06:31:20.818Z,74.57
2022-08-01T06:33:50.110Z,73.93
2022-08-01T06:36:22.918Z,70.28
2022-08-01T06:38:52.200Z,74.40
2022-08-01T06:41:26.808Z,75.75
2022-08-01T06:43:57.124Z,74.88
2022-08-01T06:46:30.263Z,75.74
2022-08-01T06:49:01.620Z,75.42
2022-08-01T06:51:32.294Z,77.13
2022-08-01T06:54:01.976Z,73.88
2022-08-01T06:56:31.264Z,76.71
2022-08-01T06:59:03.562Z,74.13
2022-08-01T07:01:35.029Z,75.28
2022-08-01T07:04:05.112Z,78.01
2022-08-01T07:06:35.823Z,78.06
2022-08-01T07:09:09.628Z,77.05
2022-08-01T07:11:43.502Z,78.01
2022-08-01T07:14:13.220Z,77.01
2022-08-01T07:16:42.488Z,76.53
2022-08-01T07:19:11.521Z,76.79
2022-08-01T07:21:42.331Z,77.17
2022-08-01T07:24:16.078Z,75.41
2022-08-01T07:26:53.494Z,76.15
2022-08-01T07:29:25.837Z,75.63
2022-08-01T07:31:57.574Z,74.73
2022-08-01T07:34:27.621Z,70.79
2022-08-01T07:36:59.415Z,66.16
2022-08-01T07:39:28.755Z,67.54
2022-08-01T07:42:06.396Z,70.35
2022-08-01T07:44:37.547Z,70.96
2022-08-01T07:47:07.599Z,69.18
2022-08-01T07:49:40.594Z,68.86
2022-08-01T07:52:13.957Z,70.22
2022-08-01T07:54:42.987Z,67.91
2022-08-01T07:57:13.827Z,67.76
2022-08-01T07:59:42.969Z,68.76
2022-08-01T08:02:14.050Z,67.74
2022-08-01T08:04:48.509Z,68.25
2022-08-01T08:07:47.003Z,67.63
2022-08-01T08:10:16.199Z,66.76
2022-08-01T08:12:49.620Z,67.28
2022-08-01T08:15:33.650Z,68.23
2022-08-01T08:18:06.311Z,70.08
2022-08-01T08:20:38.454Z,65.66
2022-08-01T08:23:49.253Z,67.02
2022-08-01T08:27:19.245Z,67.24
2022-08-01T08:29:52.661Z,69.56
2022-08-01T08:32:29.077Z,70.55
2022-08-01T08:35:13.710Z,68.43
2022-08-01T08:37:49.129Z,70.28
2022-08-01T08:40:27.355Z,67.99
2022-08-01T08:43:05.432Z,68.81
2022-08-01T08:45:59.004Z,67.29
2022-08-01T08:48:28.313Z,67.53
2022-08-01T08:51:00.197Z,63.09
2022-08-01T08:53:48.740Z,60.08
2022-08-01T08:56:19.773Z,60.50
2022-08-01T08:59:41.248Z,60.47
2022-08-01T09:02:12.525Z,60.53
2022-08-01T09:04:42.653Z,60.58
2022-08-01T09:07:15.344Z,61.46
2022-08-01T09:09:51.625Z,63.60
2022-08-01T09:12:22.465Z,58.30
2022-08-01T09:14:54.605Z,55.26
2022-08-01T09:17:24.320Z,55.66
2022-08-01T09:20:10.151Z,55.54
2022-08-01T09:22:46.171Z,54.19
2022-08-01T09:25:46.092Z,57.77
2022-08-01T09:28:30.959Z,55.33
2022-08-01T09:31:08.569Z,55.27
2022-08-01T09:33:59.070Z,56.30
2022-08-01T09:36:49.511Z,57.32
2022-08-01T09:39:19.029Z,57.73
2022-08-01T09:41:48.598Z,54.26
2022-08-01T09:44:31.394Z,51.25
2022-08-01T09:47:10.786Z,49.36
2022-08-01T09:49:50.711Z,50.31
2022-08-01T09:52:25.935Z,47.76
2022-08-01T09:54:59.806Z,49.12
2022-08-01T09:57:30.314Z,47.60
2022-08-01T10:00:03.147Z,45.55
2022-08-01T10:02:35.681Z,44.71
2022-08-01T10:05:08.778Z,45.38
2022-08-01T10:07:57.985Z,45.29
2022-08-01T10:10:31.784Z,45.20
2022-08-01T10:13:03.317Z,43.69
2022-08-01T10:15:36.994Z,44.61
2022-08-01T10:18:16.231Z,44.02
2022-08-01T10:20:56.646Z,42.08
2022-08-01T10:23:40.767Z,42.23
2022-08-01T10:26:12.964Z,41.92
2022-08-01T10:28:47.435Z,43.11
2022-08-01T10:31:20.545Z,42.88
2022-08-01T10:34:01.281Z,41.83
2022-08-01T10:36:32.341Z,44.14
2022-08-01T10:39:02.220Z,44.15
2022-08-01T10:41:31.646Z,47.33
2022-08-01T10:44:01.834Z,46.13
2022-08-01T10:46:33.563Z,43.66
2022-08-01T10:49:08.500Z,42.78
2022-08-01T10:51:52.158Z,43.73
2022-08-01T10:54:22.231Z,43.48
2022-08-01T10:56:57.414Z,44.59
2022-08-01T10:59:51.126Z,41.23
2022-08-01T11:02:34.591Z,42.75
2022-08-01T11:05:14.288Z,43.75
2022-08-01T11:07:50.565Z,41.39
2022-08-01T11:10:27.463Z,40.96
2022-08-01T11:12:57.672Z,41.25
2022-08-01T11:15:29.244Z,41.55
2022-08-01T11:18:27.517Z,39.44
2022-08-01T11:21:56.859Z,40.52
2022-08-01T11:23:54.541Z,41.78
2022-08-01T11:26:28.935Z,41.24
2022-08-01T11:29:22.082Z,42.01
2022-08-01T11:31:53.985Z,43.15
2022-08-01T11:34:56.385Z,40.63
2022-08-01T11:37:30.405Z,42.82
2022-08-01T11:40:22.849Z,42.26
2022-08-01T11:43:20.376Z,38.40
2022-08-01T11:46:08.105Z,37.32
2022-08-01T11:48:38.530Z,39.02
2022-08-01T11:51:23.930Z,36.47
2022-08-01T11:54:13.225Z,36.15
2022-08-01T11:56:44.789Z,36.73
2022-08-01T11:59:15.860Z,37.04
2022-08-01T12:01:45.269Z,32.89
2022-08-01T12:04:14.558Z,35.13
2022-08-01T12:06:47.567Z,36.52
2022-08-01T12:09:21.656Z,35.42
2022-08-01T12:11:51.281Z,35.41
2022-08-01T12:14:23.890Z,34.71
2022-08-01T12:16:56.931Z,37.28
2022-08-01T12:19:27.408Z,32.74
2022-08-01T12:22:14.221Z,33.19
2022-08-01T12:24:45.037Z,30.01
2022-08-01T12:27:26.790Z,29.18
2022-08-01T12:29:56.780Z,28.65
2022-08-01T12:32:35.622Z,30.69
2022-08-01T12:35:08.097Z,29.53
2022-08-01T12:37:41.233Z,30.66
2022-08-01T12:40:20.783Z,27.84
2022-08-01T12:42:56.245Z,29.43
2022-08-01T12:45:30.207Z,27.40
2022-08-01T12:48:01.902Z,28.57
2022-08-01T12:50:33.166Z,31.70
2022-08-01T12:53:05.095Z,29.64
2022-08-01T12:55:38.222Z,28.87
2022-08-01T12:58:33.374Z,28.97
2022-08-01T13:01:07.832Z,27.36
2022-08-01T13:03:40.272Z,25.22
2022-08-01T13:06:16.252Z,28.88
2022-08-01T13:08:48.364Z,26.04
2022-08-01T13:11:19.915Z,25.36
2022-08-01T13:13:51.781Z,26.88
2022-08-01T13:16:31.258Z,24.72
2022-08-01T13:19:08.244Z,27.40
2022-08-01T13:21:53.010Z,26.55
2022-08-01T13:24:29.380Z,26.17
2022-08-01T13:27:01.696Z,27.03
2022-08-01T13:29:39.024Z,28.38
2022-08-01T13:32:28.735Z,25.23
2022-08-01T13:35:07.116Z,26.69
2022-08-01T13:37:38.639Z,28.66
2022-08-01T13:40:13.324Z,28.35
2022-08-01T13:42:42.459Z,30.39
2022-08-01T13:45:14.863Z,28.08
2022-08-01T13:48:04.109Z,31.22
2022-08-01T13:50:34.376Z,30.26
2022-08-01T13:53:03.497Z,28.77
2022-08-01T13:55:35.454Z,28.65
2022-08-01T13:58:05.183Z,29.40
2022-08-01T14:00:34.526Z,26.76
2022-08-01T14:03:03.270Z,28.95
2022-08-01T14:05:32.816Z,29.11
2022-08-01T14:08:02.083Z,28.94
2022-08-01T14:10:32.617Z,31.26
2022-08-01T14:13:01.974Z,30.23
2022-08-01T14:15:37.941Z,27.44
2022-08-01T14:18:10.546Z,26.83
2022-08-01T14:20:40.789Z,26.06
2022-08-01T14:23:10.667Z,30.15
2022-08-01T14:26:02.488Z,32.48
2022-08-01T14:28:32.453Z,30.10
2022-08-01T14:31:02.113Z,31.16
2022-08-01T14:33:31.970Z,30.89
2022-08-01T14:36:28.770Z,31.56
2022-08-01T14:38:53.025Z,28.63
2022-08-01T14:41:23.802Z,28.01
2022-08-01T14:43:52.815Z,29.98
2022-08-01T14:46:21.763Z,28.21
2022-08-01T14:48:50.621Z,27.10
2022-08-01T14:51:19.706Z,24.68
2022-08-01T14:53:50.653Z,28.10
2022-08-01T14:56:19.991Z,27.50
2022-08-01T14:58:50.935Z,29.40
2022-08-01T15:01:20.127Z,30.11
2022-08-01T15:03:51.534Z,30.97
2022-08-01T15:06:20.545Z,31.47
2022-08-01T15:08:49.680Z,32.37
2022-08-01T15:11:18.748Z,33.46
2022-08-01T15:14:07.595Z,31.09
2022-08-01T15:16:38.360Z,32.47
2022-08-01T15:19:07.944Z,34.81
2022-08-01T15:21:41.967Z,34.67
2022-08-01T15:24:11.673Z,34.61
2022-08-01T15:26:40.726Z,34.96
2022-08-01T15:29:10.135Z,35.23
2022-08-01T15:31:40.648Z,36.01
2022-08-01T15:34:09.716Z,36.83
2022-08-01T15:36:41.939Z,37.26
2022-08-01T15:39:12.807Z,37.21
2022-08-01T15:41:42.283Z,37.88
2022-08-01T15:44:11.676Z,37.33
2022-08-01T15:46:42.909Z,37.57
2022-08-01T15:49:12.321Z,37.36
2022-08-01T15:51:41.899Z,37.77
2022-08-01T15:54:14.621Z,38.86
2022-08-01T15:56:44.594Z,38.58
2022-08-01T15:59:13.858Z,37.98
2022-08-01T16:01:44.669Z,38.29
2022-08-01T16:04:13.896Z,37.77
2022-08-01T16:06:43.241Z,38.84
2022-08-01T16:09:19.112Z,37.99
2022-08-01T16:11:50.939Z,39.17
2022-08-01T16:14:21.685Z,40.36
2022-08-01T16:16:54.519Z,39.00
2022-08-01T16:19:24.425Z,39.14
2022-08-01T16:21:54.004Z,39.67
2022-08-01T16:24:23.810Z,39.36
2022-08-01T16:26:53.482Z,39.45
2022-08-01T16:29:22.527Z,39.30
2022-08-01T16:32:03.317Z,38.92
2022-08-01T16:34:46.933Z,39.67
2022-08-01T16:37:17.407Z,40.82
2022-08-01T16:39:47.515Z,39.84
2022-08-01T16:42:16.596Z,40.37
2022-08-01T16:44:45.695Z,41.05
2022-08-01T16:47:16.242Z,40.79
2022-08-01T16:49:45.385Z,40.40
2022-08-01T16:52:14.950Z,40.68
2022-08-01T16:54:44.271Z,40.39
2022-08-01T16:57:13.778Z,41.40
2022-08-01T16:59:43.118Z,41.26
2022-08-01T17:02:13.105Z,41.91
2022-08-01T17:04:43.416Z,42.65
2022-08-01T17:07:12.992Z,43.35
2022-08-01T17:09:43.671Z,44.84
2022-08-01T17:12:21.005Z,43.96
2022-08-01T17:14:52.114Z,45.18
2022-08-01T17:17:24.113Z,43.64
2022-08-01T17:19:54.914Z,44.27
2022-08-01T17:22:23.996Z,44.41
2022-08-01T17:25:18.145Z,44.72
2022-08-01T17:27:47.211Z,45.32
2022-08-01T17:30:16.144Z,45.14
2022-08-01T17:32:48.002Z,45.91
2022-08-01T17:35:18.509Z,45.38
2022-08-01T17:37:47.872Z,46.98
2022-08-01T17:40:38.981Z,47.41
2022-08-01T17:43:07.295Z,48.54
2022-08-01T17:45:48.859Z,49.40
2022-08-01T17:48:19.739Z,50.34
2022-08-01T17:50:50.944Z,50.75
2022-08-01T17:53:21.437Z,51.03
2022-08-01T17:55:56.938Z,52.51
2022-08-01T17:58:45.074Z,52.43
2022-08-01T18:01:18.468Z,52.47
2022-08-01T18:03:48.096Z,53.26
2022-08-01T18:06:23.186Z,54.34
2022-08-01T18:08:56.191Z,54.11
2022-08-01T18:11:27.162Z,55.25
2022-08-01T18:13:59.598Z,54.93
2022-08-01T18:16:29.123Z,54.61
2022-08-01T18:18:58.287Z,55.40
2022-08-01T18:21:28.889Z,55.73
2022-08-01T18:23:57.639Z,55.98
2022-08-01T18:26:26.943Z,55.89
2022-08-01T18:28:56.006Z,55.74
2022-08-01T18:31:27.605Z,56.70
2022-08-01T18:33:56.845Z,56.95
2022-08-01T18:36:33.343Z,56.56
2022-08-01T18:39:10.523Z,58.25
2022-08-01T18:41:40.656Z,57.74
2022-08-01T18:44:10.451Z,57.69
2022-08-01T18:46:40.680Z,58.51
2022-08-01T18:49:13.206Z,59.42
2022-08-01T18:51:45.178Z,59.88
2022-08-01T18:54:18.161Z,60.31
2022-08-01T18:56:47.641Z,59.77
2022-08-01T18:59:16.993Z,60.57
2022-08-01T19:01:46.153Z,60.71
2022-08-01T19:04:15.337Z,61.37
2022-08-01T19:06:47.469Z,60.80
2022-08-01T19:09:20.831Z,61.83
2022-08-01T19:11:49.883Z,62.29
2022-08-01T19:14:19.079Z,62.44
2022-08-01T19:16:48.439Z,62.54
2022-08-01T19:19:24.765Z,61.64
2022-08-01T19:21:57.303Z,62.55
2022-08-01T19:24:28.032Z,63.29
2022-08-01T19:27:05.219Z,64.15
2022-08-01T19:29:40.633Z,62.72
2022-08-01T19:32:11.544Z,62.71
2022-08-01T19:34:50.528Z,62.93
2022-08-01T19:37:25.377Z,63.02
2022-08-01T19:39:59.370Z,63.22
2022-08-01T19:42:30.105Z,63.96
2022-08-01T19:44:59.564Z,63.22
2022-08-01T19:47:56.216Z,64.17
2022-08-01T19:50:17.797Z,64.55
2022-08-01T19:52:48.761Z,65.10
2022-08-01T19:55:20.060Z,64.37
2022-08-01T19:58:10.499Z,64.74
2022-08-01T20:00:41.127Z,64.71
2022-08-01T20:03:11.781Z,65.78
2022-08-01T20:05:41.437Z,66.65
2022-08-01T20:08:11.389Z,66.23
2022-08-01T20:10:42.421Z,66.50
2022-08-01T20:13:13.248Z,66.89
2022-08-01T20:15:45.850Z,67.01
2022-08-01T20:18:15.139Z,67.16
2022-08-01T20:20:46.157Z,67.79
2022-08-01T20:23:18.173Z,68.67
2022-08-01T20:25:52.983Z,68.88
2022-08-01T20:28:28.075Z,68.92
2022-08-01T20:31:05.747Z,68.71
2022-08-01T20:33:38.251Z,67.61
2022-08-01T20:36:11.970Z,69.36
2022-08-01T20:38:56.520Z,68.73
2022-08-01T20:41:28.996Z,69.08
2022-08-01T20:44:00.095Z,69.09
2022-08-01T20:46:30.815Z,70.91
2022-08-01T20:49:00.663Z,70.75
2022-08-01T20:51:31.583Z,71.76
2022-08-01T20:54:01.053Z,71.83
2022-08-01T20:56:39.418Z,71.61
2022-08-01T20:59:39.450Z,71.84
2022-08-01T21:02:10.489Z,72.63
2022-08-01T21:04:54.772Z,73.59
2022-08-01T21:07:28.835Z,73.09
2022-08-01T21:10:07.946Z,73.74
2022-08-01T21:12:46.432Z,72.69
2022-08-01T21:15:26.849Z,72.66
2022-08-01T21:18:03.873Z,73.24
2022-08-01T21:20:37.399Z,73.60
2022-08-01T21:23:16.677Z,73.50
2022-08-01T21:25:46.689Z,73.31
2022-08-01T21:28:17.441Z,73.79
2022-08-01T21:30:55.656Z,72.65
2022-08-01T21:33:27.903Z,73.32
2022-08-01T21:36:04.288Z,73.15
2022-08-01T21:38:40.273Z,73.54
2022-08-01T21:41:10.368Z,73.66
2022-08-01T21:43:44.551Z,74.33
2022-08-01T21:46:14.782Z,74.94
2022-08-01T21:48:44.792Z,75.04
2022-08-01T21:51:28.965Z,75.27
2022-08-01T21:54:10.312Z,75.22
2022-08-01T21:56:50.776Z,75.68
2022-08-01T21:59:31.003Z,75.64
2022-08-01T22:02:05.052Z,75.30
2022-08-01T22:04:43.739Z,74.19
2022-08-01T22:07:15.783Z,75.84
2022-08-01T22:09:47.848Z,75.94
2022-08-01T22:12:19.120Z,76.10
2022-08-01T22:14:51.500Z,77.15
2022-08-01T22:17:24.137Z,76.43
2022-08-01T22:19:55.155Z,76.17
2022-08-01T22:22:34.233Z,76.19
2022-08-01T22:25:14.594Z,74.58
2022-08-01T22:28:06.570Z,76.41
2022-08-01T22:30:36.634Z,76.55
2022-08-01T22:33:08.088Z,76.38
2022-08-01T22:35:47.729Z,75.29
2022-08-01T22:38:19.631Z,75.40
2022-08-01T22:40:51.980Z,75.50
2022-08-01T22:43:28.003Z,76.49
2022-08-01T22:46:27.554Z,76.44
2022-08-01T22:49:09.031Z,77.00
2022-08-01T22:51:54.421Z,77.39
2022-08-01T22:54:32.050Z,75.42
2022-08-01T22:57:07.496Z,77.21
2022-08-01T22:59:48.557Z,77.03
2022-08-01T23:02:20.868Z,77.40
2022-08-01T23:04:53.427Z,77.54
2022-08-01T23:07:27.429Z,78.36
2022-08-01T23:09:58.444Z,78.62
2022-08-01T23:12:29.113Z,78.48
2022-08-01T23:15:00.151Z,78.70
2022-08-01T23:17:32.889Z,78.81
2022-08-01T23:20:06.250Z,79.22
2022-08-01T23:22:38.597Z,79.27
2022-08-01T23:25:10.307Z,78.70
2022-08-01T23:27:51.830Z,78.20
2022-08-01T23:30:33.072Z,78.35
2022-08-01T23:33:04.552Z,79.09
2022-08-01T23:35:38.800Z,79.07
2022-08-01T23:38:10.263Z,78.57
2022-08-01T23:40:39.994Z,79.62
2022-08-01T23:43:16.848Z,78.65
2022-08-01T23:46:03.790Z,78.56
2022-08-01T23:48:36.997Z,79.26
2022-08-01T23:51:09.385Z,79.38
2022-08-01T23:53:40.535Z,79.81
2022-08-01T23:56:10.438Z,80.00
2022-08-01T23:58:41.894Z,79.89
